sensor_id;sensor_type;location;lat;lon;timestamp;P1;durP1;ratioP1;P2;durP2;ratioP2
5813;SDS011;2933;52.302;8.134;2023-02-23T00:01:47;54.50;;;25.20;;
5813;SDS011;2933;52.302;8.134;2023-02-23T00:06:49;49.57;;;23.07;;
5813;SDS011;2933;52.302;8.134;2023-02-23T00:11:53;62.90;;;27.17;;
5813;SDS011;2933;52.302;8.134;2023-02-23T00:16:57;53.70;;;25.40;;
5813;SDS011;2933;52.302;8.134;2023-02-23T00:21:59;61.17;;;26.87;;
5813;SDS011;2933;52.302;8.134;2023-02-23T00:27:01;64.83;;;29.00;;
5813;SDS011;2933;52.302;8.134;2023-02-23T00:32:06;61.67;;;27.80;;
5813;SDS011;2933;52.302;8.134;2023-02-23T00:37:08;59.97;;;27.80;;
5813;SDS011;2933;52.302;8.134;2023-02-23T00:42:11;59.93;;;27.57;;
5813;SDS011;2933;52.302;8.134;2023-02-23T00:47:14;64.03;;;27.70;;
5813;SDS011;2933;52.302;8.134;2023-02-23T00:52:16;67.13;;;28.90;;
5813;SDS011;2933;52.302;8.134;2023-02-23T00:57:18;67.80;;;29.30;;
5813;SDS011;2933;52.302;8.134;2023-02-23T01:02:21;68.30;;;27.90;;
5813;SDS011;2933;52.302;8.134;2023-02-23T01:07:22;83.23;;;30.27;;
5813;SDS011;2933;52.302;8.134;2023-02-23T01:12:24;73.40;;;30.50;;
5813;SDS011;2933;52.302;8.134;2023-02-23T01:17:27;81.53;;;31.10;;
5813;SDS011;2933;52.302;8.134;2023-02-23T01:22:30;77.57;;;31.50;;
5813;SDS011;2933;52.302;8.134;2023-02-23T01:27:31;78.13;;;30.73;;
5813;SDS011;2933;52.302;8.134;2023-02-23T01:32:35;78.20;;;30.43;;
5813;SDS011;2933;52.302;8.134;2023-02-23T01:37:38;78.73;;;29.93;;
5813;SDS011;2933;52.302;8.134;2023-02-23T01:42:43;73.70;;;30.30;;
5813;SDS011;2933;52.302;8.134;2023-02-23T01:47:48;74.43;;;29.60;;
5813;SDS011;2933;52.302;8.134;2023-02-23T01:52:51;75.23;;;29.60;;
5813;SDS011;2933;52.302;8.134;2023-02-23T01:57:58;82.33;;;31.60;;
5813;SDS011;2933;52.302;8.134;2023-02-23T02:03:07;84.47;;;31.93;;
5813;SDS011;2933;52.302;8.134;2023-02-23T02:08:14;77.73;;;31.00;;
5813;SDS011;2933;52.302;8.134;2023-02-23T02:13:19;71.37;;;28.53;;
5813;SDS011;2933;52.302;8.134;2023-02-23T02:18:25;81.13;;;31.83;;
5813;SDS011;2933;52.302;8.134;2023-02-23T02:35:23;75.63;;;29.60;;
5813;SDS011;2933;52.302;8.134;2023-02-23T02:40:40;78.83;;;31.00;;
5813;SDS011;2933;52.302;8.134;2023-02-23T02:45:53;76.87;;;30.40;;
5813;SDS011;2933;52.302;8.134;2023-02-23T02:51:01;87.73;;;33.40;;
5813;SDS011;2933;52.302;8.134;2023-02-23T02:56:09;80.77;;;30.80;;
5813;SDS011;2933;52.302;8.134;2023-02-23T03:01:14;71.83;;;28.63;;
5813;SDS011;2933;52.302;8.134;2023-02-23T03:06:36;80.60;;;31.47;;
5813;SDS011;2933;52.302;8.134;2023-02-23T03:12:08;80.53;;;31.70;;
5813;SDS011;2933;52.302;8.134;2023-02-23T03:17:33;76.50;;;31.67;;
5813;SDS011;2933;52.302;8.134;2023-02-23T03:23:02;72.70;;;29.27;;
5813;SDS011;2933;52.302;8.134;2023-02-23T03:28:31;74.10;;;29.50;;
5813;SDS011;2933;52.302;8.134;2023-02-23T03:33:56;71.27;;;28.67;;
5813;SDS011;2933;52.302;8.134;2023-02-23T03:39:21;65.03;;;28.40;;
5813;SDS011;2933;52.302;8.134;2023-02-23T03:44:48;82.70;;;31.27;;
5813;SDS011;2933;52.302;8.134;2023-02-23T03:50:11;79.17;;;30.60;;
5813;SDS011;2933;52.302;8.134;2023-02-23T03:55:36;77.03;;;31.37;;
5813;SDS011;2933;52.302;8.134;2023-02-23T04:01:02;69.90;;;30.40;;
5813;SDS011;2933;52.302;8.134;2023-02-23T04:06:25;73.60;;;28.37;;
5813;SDS011;2933;52.302;8.134;2023-02-23T04:11:50;76.13;;;30.47;;
5813;SDS011;2933;52.302;8.134;2023-02-23T04:17:15;79.03;;;31.70;;
5813;SDS011;2933;52.302;8.134;2023-02-23T04:22:23;90.77;;;31.70;;
5813;SDS011;2933;52.302;8.134;2023-02-23T04:27:25;79.03;;;30.50;;
5813;SDS011;2933;52.302;8.134;2023-02-23T04:32:28;82.53;;;31.13;;
5813;SDS011;2933;52.302;8.134;2023-02-23T04:37:30;77.10;;;29.40;;
5813;SDS011;2933;52.302;8.134;2023-02-23T04:42:31;74.90;;;31.10;;
5813;SDS011;2933;52.302;8.134;2023-02-23T04:47:34;75.70;;;29.03;;
5813;SDS011;2933;52.302;8.134;2023-02-23T04:52:36;77.33;;;30.10;;
5813;SDS011;2933;52.302;8.134;2023-02-23T04:57:38;75.23;;;29.97;;
5813;SDS011;2933;52.302;8.134;2023-02-23T05:02:41;72.90;;;29.67;;
5813;SDS011;2933;52.302;8.134;2023-02-23T05:07:42;76.50;;;30.10;;
5813;SDS011;2933;52.302;8.134;2023-02-23T05:12:44;69.67;;;29.03;;
5813;SDS011;2933;52.302;8.134;2023-02-23T05:17:47;71.90;;;28.70;;
5813;SDS011;2933;52.302;8.134;2023-02-23T05:22:49;85.90;;;29.40;;
5813;SDS011;2933;52.302;8.134;2023-02-23T05:27:52;64.80;;;27.57;;
5813;SDS011;2933;52.302;8.134;2023-02-23T05:32:55;83.57;;;32.33;;
5813;SDS011;2933;52.302;8.134;2023-02-23T05:37:56;85.67;;;31.97;;
5813;SDS011;2933;52.302;8.134;2023-02-23T05:42:58;78.30;;;30.30;;
5813;SDS011;2933;52.302;8.134;2023-02-23T05:48:01;85.33;;;32.80;;
5813;SDS011;2933;52.302;8.134;2023-02-23T05:53:03;80.17;;;30.87;;
5813;SDS011;2933;52.302;8.134;2023-02-23T05:58:05;87.40;;;31.30;;
5813;SDS011;2933;52.302;8.134;2023-02-23T06:03:08;98.30;;;32.87;;
5813;SDS011;2933;52.302;8.134;2023-02-23T06:08:09;91.87;;;31.57;;
5813;SDS011;2933;52.302;8.134;2023-02-23T06:13:11;103.17;;;34.97;;
5813;SDS011;2933;52.302;8.134;2023-02-23T06:18:15;92.03;;;33.17;;
5813;SDS011;2933;52.302;8.134;2023-02-23T06:23:17;105.37;;;35.47;;
5813;SDS011;2933;52.302;8.134;2023-02-23T06:28:18;96.07;;;32.37;;
5813;SDS011;2933;52.302;8.134;2023-02-23T06:33:21;112.57;;;37.20;;
5813;SDS011;2933;52.302;8.134;2023-02-23T06:38:24;96.83;;;32.80;;
5813;SDS011;2933;52.302;8.134;2023-02-23T06:43:26;107.63;;;34.03;;
5813;SDS011;2933;52.302;8.134;2023-02-23T06:48:29;119.93;;;35.67;;
5813;SDS011;2933;52.302;8.134;2023-02-23T06:53:31;114.77;;;34.80;;
5813;SDS011;2933;52.302;8.134;2023-02-23T06:58:33;105.63;;;32.70;;
5813;SDS011;2933;52.302;8.134;2023-02-23T07:03:35;100.40;;;34.07;;
5813;SDS011;2933;52.302;8.134;2023-02-23T07:08:37;105.77;;;33.30;;
5813;SDS011;2933;52.302;8.134;2023-02-23T07:13:39;111.13;;;33.97;;
5813;SDS011;2933;52.302;8.134;2023-02-23T07:18:42;110.40;;;33.50;;
5813;SDS011;2933;52.302;8.134;2023-02-23T07:23:46;97.40;;;31.20;;
5813;SDS011;2933;52.302;8.134;2023-02-23T07:28:49;111.63;;;32.47;;
5813;SDS011;2933;52.302;8.134;2023-02-23T07:33:52;114.10;;;33.20;;
5813;SDS011;2933;52.302;8.134;2023-02-23T07:38:54;103.97;;;31.97;;
5813;SDS011;2933;52.302;8.134;2023-02-23T07:43:56;106.60;;;32.17;;
5813;SDS011;2933;52.302;8.134;2023-02-23T07:49:00;100.83;;;31.10;;
5813;SDS011;2933;52.302;8.134;2023-02-23T07:54:03;106.63;;;32.77;;
5813;SDS011;2933;52.302;8.134;2023-02-23T07:59:05;110.80;;;34.17;;
5813;SDS011;2933;52.302;8.134;2023-02-23T08:04:08;120.50;;;34.47;;
5813;SDS011;2933;52.302;8.134;2023-02-23T08:09:10;113.13;;;32.20;;
5813;SDS011;2933;52.302;8.134;2023-02-23T08:14:12;124.20;;;32.40;;
5813;SDS011;2933;52.302;8.134;2023-02-23T08:19:15;102.97;;;32.30;;
5813;SDS011;2933;52.302;8.134;2023-02-23T08:24:16;107.20;;;32.00;;
5813;SDS011;2933;52.302;8.134;2023-02-23T08:29:18;120.07;;;34.10;;
5813;SDS011;2933;52.302;8.134;2023-02-23T08:34:21;121.63;;;34.30;;
5813;SDS011;2933;52.302;8.134;2023-02-23T08:39:23;122.17;;;33.90;;
5813;SDS011;2933;52.302;8.134;2023-02-23T08:44:25;129.27;;;33.63;;
5813;SDS011;2933;52.302;8.134;2023-02-23T08:49:28;123.97;;;33.13;;
5813;SDS011;2933;52.302;8.134;2023-02-23T08:54:31;117.97;;;33.37;;
5813;SDS011;2933;52.302;8.134;2023-02-23T08:59:32;123.60;;;31.00;;
5813;SDS011;2933;52.302;8.134;2023-02-23T09:04:35;119.67;;;31.07;;
5813;SDS011;2933;52.302;8.134;2023-02-23T09:09:37;126.83;;;31.03;;
5813;SDS011;2933;52.302;8.134;2023-02-23T09:14:39;114.03;;;30.00;;
5813;SDS011;2933;52.302;8.134;2023-02-23T09:19:41;113.20;;;30.20;;
5813;SDS011;2933;52.302;8.134;2023-02-23T09:24:43;123.53;;;30.13;;
5813;SDS011;2933;52.302;8.134;2023-02-23T09:29:45;119.23;;;30.17;;
5813;SDS011;2933;52.302;8.134;2023-02-23T09:34:48;117.10;;;29.77;;
5813;SDS011;2933;52.302;8.134;2023-02-23T09:39:51;110.37;;;30.80;;
5813;SDS011;2933;52.302;8.134;2023-02-23T09:44:58;111.53;;;28.87;;
5813;SDS011;2933;52.302;8.134;2023-02-23T09:50:12;118.53;;;34.00;;
5813;SDS011;2933;52.302;8.134;2023-02-23T09:55:18;120.20;;;31.93;;
5813;SDS011;2933;52.302;8.134;2023-02-23T10:00:21;133.87;;;34.97;;
5813;SDS011;2933;52.302;8.134;2023-02-23T10:05:25;125.57;;;31.67;;
5813;SDS011;2933;52.302;8.134;2023-02-23T10:10:32;126.03;;;33.23;;
5813;SDS011;2933;52.302;8.134;2023-02-23T10:15:41;131.17;;;34.30;;
5813;SDS011;2933;52.302;8.134;2023-02-23T10:20:51;127.63;;;33.07;;
5813;SDS011;2933;52.302;8.134;2023-02-23T10:25:57;117.57;;;32.27;;
5813;SDS011;2933;52.302;8.134;2023-02-23T10:31:03;104.83;;;31.83;;
5813;SDS011;2933;52.302;8.134;2023-02-23T10:36:23;102.30;;;27.70;;
5813;SDS011;2933;52.302;8.134;2023-02-23T10:41:34;89.00;;;28.43;;
5813;SDS011;2933;52.302;8.134;2023-02-23T10:46:38;99.53;;;27.90;;
5813;SDS011;2933;52.302;8.134;2023-02-23T10:51:41;96.93;;;27.27;;
5813;SDS011;2933;52.302;8.134;2023-02-23T10:56:45;86.33;;;22.60;;
5813;SDS011;2933;52.302;8.134;2023-02-23T11:01:47;66.53;;;22.13;;
5813;SDS011;2933;52.302;8.134;2023-02-23T11:06:50;65.53;;;19.00;;
5813;SDS011;2933;52.302;8.134;2023-02-23T11:12:14;73.53;;;21.30;;
5813;SDS011;2933;52.302;8.134;2023-02-23T11:17:25;59.50;;;20.17;;
5813;SDS011;2933;52.302;8.134;2023-02-23T11:22:31;55.37;;;17.60;;
5813;SDS011;2933;52.302;8.134;2023-02-23T11:27:35;60.67;;;18.27;;
5813;SDS011;2933;52.302;8.134;2023-02-23T11:32:36;53.00;;;18.83;;
5813;SDS011;2933;52.302;8.134;2023-02-23T11:37:42;54.70;;;18.20;;
5813;SDS011;2933;52.302;8.134;2023-02-23T11:42:51;64.43;;;21.10;;
5813;SDS011;2933;52.302;8.134;2023-02-23T11:47:55;57.03;;;19.17;;
5813;SDS011;2933;52.302;8.134;2023-02-23T11:53:01;59.33;;;19.60;;
5813;SDS011;2933;52.302;8.134;2023-02-23T11:58:09;62.00;;;18.97;;
5813;SDS011;2933;52.302;8.134;2023-02-23T12:03:21;57.07;;;19.57;;
5813;SDS011;2933;52.302;8.134;2023-02-23T12:08:31;56.40;;;19.07;;
5813;SDS011;2933;52.302;8.134;2023-02-23T12:13:39;53.80;;;19.27;;
5813;SDS011;2933;52.302;8.134;2023-02-23T12:18:45;57.77;;;18.40;;
5813;SDS011;2933;52.302;8.134;2023-02-23T12:23:52;51.13;;;18.23;;
5813;SDS011;2933;52.302;8.134;2023-02-23T12:29:03;62.00;;;20.30;;
5813;SDS011;2933;52.302;8.134;2023-02-23T12:34:16;52.93;;;18.90;;
5813;SDS011;2933;52.302;8.134;2023-02-23T12:39:27;44.90;;;15.47;;
5813;SDS011;2933;52.302;8.134;2023-02-23T12:44:34;46.00;;;15.00;;
5813;SDS011;2933;52.302;8.134;2023-02-23T12:49:43;44.23;;;14.47;;
5813;SDS011;2933;52.302;8.134;2023-02-23T12:54:52;43.27;;;15.33;;
5813;SDS011;2933;52.302;8.134;2023-02-23T13:00:05;39.60;;;13.50;;
5813;SDS011;2933;52.302;8.134;2023-02-23T13:05:29;39.00;;;13.70;;
5813;SDS011;2933;52.302;8.134;2023-02-23T13:10:38;42.50;;;12.47;;
5813;SDS011;2933;52.302;8.134;2023-02-23T13:15:49;39.80;;;12.40;;
5813;SDS011;2933;52.302;8.134;2023-02-23T13:20:59;37.87;;;11.80;;
5813;SDS011;2933;52.302;8.134;2023-02-23T13:26:10;31.07;;;12.43;;
5813;SDS011;2933;52.302;8.134;2023-02-23T13:31:21;37.00;;;13.13;;
5813;SDS011;2933;52.302;8.134;2023-02-23T13:36:25;39.87;;;13.17;;
5813;SDS011;2933;52.302;8.134;2023-02-23T13:41:32;32.60;;;11.20;;
5813;SDS011;2933;52.302;8.134;2023-02-23T13:46:41;39.00;;;11.50;;
5813;SDS011;2933;52.302;8.134;2023-02-23T13:51:49;33.27;;;11.83;;
5813;SDS011;2933;52.302;8.134;2023-02-23T13:56:55;33.40;;;12.10;;
5813;SDS011;2933;52.302;8.134;2023-02-23T14:02:01;31.50;;;12.60;;
5813;SDS011;2933;52.302;8.134;2023-02-23T14:07:22;36.50;;;12.50;;
5813;SDS011;2933;52.302;8.134;2023-02-23T14:12:33;32.77;;;12.03;;
5813;SDS011;2933;52.302;8.134;2023-02-23T14:17:39;41.43;;;13.70;;
5813;SDS011;2933;52.302;8.134;2023-02-23T14:28:25;38.87;;;13.20;;
5813;SDS011;2933;52.302;8.134;2023-02-23T14:33:35;41.13;;;13.53;;
5813;SDS011;2933;52.302;8.134;2023-02-23T14:38:38;35.43;;;11.73;;
5813;SDS011;2933;52.302;8.134;2023-02-23T14:43:43;36.67;;;12.07;;
5813;SDS011;2933;52.302;8.134;2023-02-23T14:48:54;30.37;;;11.23;;
5813;SDS011;2933;52.302;8.134;2023-02-23T14:53:59;32.63;;;11.20;;
5813;SDS011;2933;52.302;8.134;2023-02-23T14:59:02;33.27;;;11.03;;
5813;SDS011;2933;52.302;8.134;2023-02-23T15:04:08;45.77;;;12.30;;
5813;SDS011;2933;52.302;8.134;2023-02-23T15:09:14;31.53;;;10.70;;
5813;SDS011;2933;52.302;8.134;2023-02-23T15:14:21;33.97;;;10.97;;
5813;SDS011;2933;52.302;8.134;2023-02-23T15:19:24;33.30;;;11.23;;
5813;SDS011;2933;52.302;8.134;2023-02-23T15:24:30;44.67;;;12.27;;
5813;SDS011;2933;52.302;8.134;2023-02-23T15:29:41;27.40;;;10.40;;
5813;SDS011;2933;52.302;8.134;2023-02-23T15:34:43;32.27;;;10.63;;
5813;SDS011;2933;52.302;8.134;2023-02-23T15:39:46;37.73;;;12.37;;
5813;SDS011;2933;52.302;8.134;2023-02-23T15:44:57;42.00;;;12.50;;
5813;SDS011;2933;52.302;8.134;2023-02-23T15:50:03;43.40;;;11.47;;
5813;SDS011;2933;52.302;8.134;2023-02-23T15:55:08;54.97;;;13.50;;
5813;SDS011;2933;52.302;8.134;2023-02-23T16:00:18;49.47;;;12.80;;
5813;SDS011;2933;52.302;8.134;2023-02-23T16:05:26;45.67;;;13.63;;
5813;SDS011;2933;52.302;8.134;2023-02-23T16:10:30;41.57;;;12.60;;
5813;SDS011;2933;52.302;8.134;2023-02-23T16:15:43;44.13;;;13.53;;
5813;SDS011;2933;52.302;8.134;2023-02-23T16:20:45;40.60;;;12.40;;
5813;SDS011;2933;52.302;8.134;2023-02-23T16:25:55;37.67;;;11.77;;
5813;SDS011;2933;52.302;8.134;2023-02-23T16:31:02;39.67;;;13.00;;
5813;SDS011;2933;52.302;8.134;2023-02-23T16:36:13;35.27;;;12.70;;
5813;SDS011;2933;52.302;8.134;2023-02-23T16:41:17;44.60;;;13.40;;
5813;SDS011;2933;52.302;8.134;2023-02-23T16:46:23;51.27;;;13.83;;
5813;SDS011;2933;52.302;8.134;2023-02-23T16:51:27;37.93;;;13.27;;
5813;SDS011;2933;52.302;8.134;2023-02-23T16:56:29;42.37;;;14.13;;
5813;SDS011;2933;52.302;8.134;2023-02-23T17:01:33;42.27;;;12.30;;
5813;SDS011;2933;52.302;8.134;2023-02-23T17:06:35;49.07;;;13.70;;
5813;SDS011;2933;52.302;8.134;2023-02-23T17:11:37;43.60;;;14.40;;
5813;SDS011;2933;52.302;8.134;2023-02-23T17:16:40;49.77;;;15.17;;
5813;SDS011;2933;52.302;8.134;2023-02-23T17:21:42;52.20;;;15.20;;
5813;SDS011;2933;52.302;8.134;2023-02-23T17:26:44;49.80;;;13.73;;
5813;SDS011;2933;52.302;8.134;2023-02-23T17:31:47;43.37;;;13.23;;
5813;SDS011;2933;52.302;8.134;2023-02-23T17:36:49;51.00;;;14.23;;
5813;SDS011;2933;52.302;8.134;2023-02-23T17:41:50;55.77;;;14.23;;
5813;SDS011;2933;52.302;8.134;2023-02-23T17:46:53;45.87;;;14.07;;
5813;SDS011;2933;52.302;8.134;2023-02-23T17:51:55;45.60;;;15.10;;
5813;SDS011;2933;52.302;8.134;2023-02-23T17:56:57;48.83;;;13.63;;
5813;SDS011;2933;52.302;8.134;2023-02-23T18:02:00;49.60;;;13.27;;
5813;SDS011;2933;52.302;8.134;2023-02-23T18:07:01;40.17;;;12.83;;
5813;SDS011;2933;52.302;8.134;2023-02-23T18:12:04;43.60;;;14.00;;
5813;SDS011;2933;52.302;8.134;2023-02-23T18:17:07;51.23;;;14.87;;
5813;SDS011;2933;52.302;8.134;2023-02-23T18:22:09;25.87;;;7.10;;
5813;SDS011;2933;52.302;8.134;2023-02-23T18:27:11;18.20;;;4.60;;
5813;SDS011;2933;52.302;8.134;2023-02-23T18:32:14;22.10;;;3.87;;
5813;SDS011;2933;52.302;8.134;2023-02-23T18:37:16;14.77;;;3.60;;
5813;SDS011;2933;52.302;8.134;2023-02-23T18:42:23;14.20;;;4.47;;
5813;SDS011;2933;52.302;8.134;2023-02-23T18:47:26;14.90;;;4.73;;
5813;SDS011;2933;52.302;8.134;2023-02-23T18:52:28;14.30;;;5.00;;
5813;SDS011;2933;52.302;8.134;2023-02-23T18:57:30;18.63;;;4.80;;
5813;SDS011;2933;52.302;8.134;2023-02-23T19:02:33;18.03;;;4.23;;
5813;SDS011;2933;52.302;8.134;2023-02-23T19:07:34;18.00;;;3.90;;
5813;SDS011;2933;52.302;8.134;2023-02-23T19:12:36;18.87;;;4.07;;
5813;SDS011;2933;52.302;8.134;2023-02-23T19:17:39;22.97;;;3.60;;
5813;SDS011;2933;52.302;8.134;2023-02-23T19:22:41;14.00;;;3.60;;
5813;SDS011;2933;52.302;8.134;2023-02-23T19:27:44;17.10;;;3.63;;
5813;SDS011;2933;52.302;8.134;2023-02-23T19:32:47;14.77;;;3.23;;
5813;SDS011;2933;52.302;8.134;2023-02-23T19:37:49;25.30;;;3.60;;
5813;SDS011;2933;52.302;8.134;2023-02-23T19:42:52;14.23;;;2.90;;
5813;SDS011;2933;52.302;8.134;2023-02-23T19:47:55;16.20;;;3.07;;
5813;SDS011;2933;52.302;8.134;2023-02-23T19:52:56;30.90;;;4.17;;
5813;SDS011;2933;52.302;8.134;2023-02-23T19:57:58;13.03;;;3.10;;
5813;SDS011;2933;52.302;8.134;2023-02-23T20:03:01;22.77;;;2.93;;
5813;SDS011;2933;52.302;8.134;2023-02-23T20:08:05;15.23;;;3.40;;
5813;SDS011;2933;52.302;8.134;2023-02-23T20:13:06;19.47;;;2.73;;
5813;SDS011;2933;52.302;8.134;2023-02-23T20:18:11;18.40;;;2.77;;
5813;SDS011;2933;52.302;8.134;2023-02-23T20:23:13;14.73;;;3.07;;
5813;SDS011;2933;52.302;8.134;2023-02-23T20:28:14;21.23;;;3.63;;
5813;SDS011;2933;52.302;8.134;2023-02-23T20:33:18;32.67;;;5.00;;
5813;SDS011;2933;52.302;8.134;2023-02-23T20:38:19;25.63;;;3.50;;
5813;SDS011;2933;52.302;8.134;2023-02-23T20:43:21;28.27;;;3.27;;
5813;SDS011;2933;52.302;8.134;2023-02-23T20:48:24;30.40;;;3.37;;
5813;SDS011;2933;52.302;8.134;2023-02-23T20:53:26;24.40;;;2.87;;
5813;SDS011;2933;52.302;8.134;2023-02-23T20:58:28;20.80;;;3.23;;
5813;SDS011;2933;52.302;8.134;2023-02-23T21:03:31;24.50;;;3.50;;
5813;SDS011;2933;52.302;8.134;2023-02-23T21:08:33;14.83;;;2.80;;
5813;SDS011;2933;52.302;8.134;2023-02-23T21:13:38;19.83;;;3.20;;
5813;SDS011;2933;52.302;8.134;2023-02-23T21:18:41;15.20;;;3.47;;
5813;SDS011;2933;52.302;8.134;2023-02-23T21:23:46;30.10;;;4.00;;
5813;SDS011;2933;52.302;8.134;2023-02-23T21:28:48;16.00;;;3.80;;
5813;SDS011;2933;52.302;8.134;2023-02-23T21:33:51;22.03;;;3.70;;
5813;SDS011;2933;52.302;8.134;2023-02-23T21:38:52;28.90;;;3.73;;
5813;SDS011;2933;52.302;8.134;2023-02-23T21:43:54;12.67;;;3.20;;
5813;SDS011;2933;52.302;8.134;2023-02-23T21:48:57;27.67;;;4.10;;
5813;SDS011;2933;52.302;8.134;2023-02-23T21:53:58;26.90;;;3.67;;
5813;SDS011;2933;52.302;8.134;2023-02-23T21:59:00;20.27;;;3.53;;
5813;SDS011;2933;52.302;8.134;2023-02-23T22:04:04;16.57;;;3.23;;
5813;SDS011;2933;52.302;8.134;2023-02-23T22:09:07;19.80;;;3.63;;
5813;SDS011;2933;52.302;8.134;2023-02-23T22:14:10;14.50;;;3.40;;
5813;SDS011;2933;52.302;8.134;2023-02-23T22:19:17;15.07;;;3.30;;
5813;SDS011;2933;52.302;8.134;2023-02-23T22:24:18;12.63;;;3.37;;
5813;SDS011;2933;52.302;8.134;2023-02-23T22:29:20;8.60;;;3.37;;
5813;SDS011;2933;52.302;8.134;2023-02-23T22:34:24;9.07;;;3.27;;
5813;SDS011;2933;52.302;8.134;2023-02-23T22:39:26;13.03;;;3.53;;
5813;SDS011;2933;52.302;8.134;2023-02-23T22:44:32;13.63;;;3.47;;
5813;SDS011;2933;52.302;8.134;2023-02-23T22:49:35;18.77;;;4.07;;
5813;SDS011;2933;52.302;8.134;2023-02-23T22:54:36;13.87;;;3.40;;
5813;SDS011;2933;52.302;8.134;2023-02-23T22:59:38;26.50;;;4.37;;
5813;SDS011;2933;52.302;8.134;2023-02-23T23:04:55;13.00;;;3.40;;
5813;SDS011;2933;52.302;8.134;2023-02-23T23:09:56;17.50;;;4.10;;
5813;SDS011;2933;52.302;8.134;2023-02-23T23:15:01;9.80;;;3.33;;
5813;SDS011;2933;52.302;8.134;2023-02-23T23:20:05;20.33;;;4.20;;
5813;SDS011;2933;52.302;8.134;2023-02-23T23:25:11;25.20;;;3.63;;
5813;SDS011;2933;52.302;8.134;2023-02-23T23:30:14;23.87;;;3.23;;
5813;SDS011;2933;52.302;8.134;2023-02-23T23:35:21;17.40;;;2.50;;
5813;SDS011;2933;52.302;8.134;2023-02-23T23:40:23;10.70;;;2.83;;
5813;SDS011;2933;52.302;8.134;2023-02-23T23:45:25;15.13;;;2.90;;
5813;SDS011;2933;52.302;8.134;2023-02-23T23:50:28;23.43;;;3.43;;
5813;SDS011;2933;52.302;8.134;2023-02-23T23:55:29;18.97;;;2.90;;
